createdAt,value
2023-04-04T00:00:40.644Z,3.00
2023-04-04T00:03:07.955Z,2.83
2023-04-04T00:05:36.334Z,2.88
2023-04-04T00:08:04.455Z,3.05
2023-04-04T00:10:31.863Z,2.78
2023-04-04T00:12:59.223Z,2.10
2023-04-04T00:15:27.329Z,3.03
2023-04-04T00:17:54.466Z,2.22
2023-04-04T00:20:21.664Z,2.40
2023-04-04T00:22:48.770Z,3.10
2023-04-04T00:25:15.891Z,2.50
2023-04-04T00:27:43.068Z,2.75
2023-04-04T00:30:12.552Z,2.85
2023-04-04T00:32:39.917Z,2.20
2023-04-04T00:35:07.458Z,2.45
2023-04-04T00:37:34.534Z,3.03
2023-04-04T00:40:01.699Z,2.60
2023-04-04T00:42:28.915Z,2.88
2023-04-04T00:44:56.580Z,3.70
2023-04-04T00:47:26.315Z,3.05
2023-04-04T00:49:54.139Z,3.15
2023-04-04T00:52:21.879Z,2.05
2023-04-04T00:54:48.964Z,3.25
2023-04-04T00:57:16.840Z,2.17
2023-04-04T00:59:44.019Z,2.90
2023-04-04T01:02:11.488Z,3.63
2023-04-04T01:04:38.959Z,5.20
2023-04-04T01:07:06.539Z,3.97
2023-04-04T01:09:33.831Z,2.10
2023-04-04T01:12:02.734Z,2.30
2023-04-04T01:14:32.102Z,2.05
2023-04-04T01:17:02.388Z,3.38
2023-04-04T01:19:47.220Z,2.90
2023-04-04T01:22:18.457Z,3.40
2023-04-04T01:24:48.570Z,3.20
2023-04-04T01:27:16.421Z,3.50
2023-04-04T01:29:51.744Z,2.80
2023-04-04T01:32:53.263Z,3.05
2023-04-04T01:36:01.862Z,2.80
2023-04-04T01:38:54.816Z,3.92
2023-04-04T01:41:25.036Z,2.75
2023-04-04T01:43:57.329Z,2.78
2023-04-04T01:46:25.401Z,3.90
2023-04-04T01:48:53.009Z,3.28
2023-04-04T01:51:27.830Z,2.97
2023-04-04T01:53:55.559Z,2.58
2023-04-04T01:56:23.452Z,2.78
2023-04-04T01:58:50.693Z,4.25
2023-04-04T02:01:17.874Z,3.88
2023-04-04T02:03:45.028Z,2.83
2023-04-04T02:06:12.187Z,3.72
2023-04-04T02:08:39.579Z,3.78
2023-04-04T02:11:07.284Z,3.58
2023-04-04T02:13:34.315Z,3.42
2023-04-04T02:16:01.518Z,3.90
2023-04-04T02:18:28.574Z,3.60
2023-04-04T02:20:57.606Z,4.70
2023-04-04T02:23:24.991Z,2.95
2023-04-04T02:25:52.155Z,3.53
2023-04-04T02:28:19.798Z,3.47
2023-04-04T02:30:48.336Z,3.20
2023-04-04T02:33:15.797Z,2.72
2023-04-04T02:35:43.077Z,4.20
2023-04-04T02:38:10.455Z,3.13
2023-04-04T02:40:46.367Z,2.83
2023-04-04T02:43:13.945Z,4.13
2023-04-04T02:45:41.781Z,4.70
2023-04-04T02:48:21.196Z,5.28
2023-04-04T02:50:51.115Z,2.90
2023-04-04T02:53:18.468Z,3.72
2023-04-04T02:55:48.925Z,3.95
2023-04-04T02:58:16.468Z,3.85
2023-04-04T03:00:43.748Z,3.72
2023-04-04T03:03:11.727Z,3.58
2023-04-04T03:05:44.106Z,4.15
2023-04-04T03:08:11.661Z,3.70
2023-04-04T03:10:39.030Z,3.60
2023-04-04T03:13:07.174Z,4.53
2023-04-04T03:15:36.198Z,2.88
2023-04-04T03:18:03.955Z,4.57
2023-04-04T03:20:33.286Z,3.60
2023-04-04T03:23:00.413Z,3.87
2023-04-04T03:25:27.559Z,3.85
2023-04-04T03:27:55.257Z,3.65
2023-04-04T03:30:27.236Z,2.47
2023-04-04T03:32:55.397Z,2.95
2023-04-04T03:35:22.605Z,3.00
2023-04-04T03:37:49.770Z,3.25
2023-04-04T03:40:16.990Z,2.83
2023-04-04T03:42:44.155Z,3.22
2023-04-04T03:45:13.643Z,3.47
2023-04-04T03:47:42.706Z,2.72
2023-04-04T03:50:10.808Z,2.58
2023-04-04T03:52:41.296Z,2.22
2023-04-04T03:55:09.321Z,3.10
2023-04-04T03:57:36.529Z,3.17
2023-04-04T04:00:05.910Z,3.13
2023-04-04T04:02:39.884Z,2.78
2023-04-04T04:05:09.399Z,3.83
2023-04-04T04:07:36.480Z,3.33
2023-04-04T04:10:05.560Z,3.20
2023-04-04T04:12:33.265Z,2.22
2023-04-04T04:15:00.474Z,2.38
2023-04-04T04:17:29.439Z,2.80
2023-04-04T04:19:57.200Z,2.65
2023-04-04T04:22:25.431Z,3.28
2023-04-04T04:24:52.564Z,3.20
2023-04-04T04:27:19.828Z,2.47
2023-04-04T04:29:46.974Z,2.25
2023-04-04T04:32:18.528Z,2.25
2023-04-04T04:34:49.488Z,2.40
2023-04-04T04:37:20.857Z,2.60
2023-04-04T04:39:52.226Z,2.47
2023-04-04T04:42:45.627Z,2.23
2023-04-04T04:45:14.610Z,2.20
2023-04-04T04:47:47.041Z,2.10
2023-04-04T04:50:17.882Z,1.80
2023-04-04T04:52:52.059Z,1.83
2023-04-04T04:55:19.341Z,1.90
2023-04-04T04:57:54.204Z,1.77
2023-04-04T05:00:25.385Z,2.00
2023-04-04T05:02:56.285Z,2.03
2023-04-04T05:05:36.876Z,1.98
2023-04-04T05:08:08.371Z,2.22
2023-04-04T05:10:39.912Z,1.67
2023-04-04T05:13:10.160Z,1.50
2023-04-04T05:15:43.166Z,2.10
2023-04-04T05:18:10.684Z,1.95
2023-04-04T05:20:38.565Z,2.05
2023-04-04T05:23:07.798Z,1.95
2023-04-04T05:25:39.436Z,1.90
2023-04-04T05:28:06.578Z,2.10
2023-04-04T05:30:34.543Z,2.30
2023-04-04T05:33:12.449Z,2.05
2023-04-04T05:35:44.106Z,2.27
2023-04-04T05:38:11.413Z,1.83
2023-04-04T05:40:39.121Z,2.45
2023-04-04T05:43:11.265Z,2.40
2023-04-04T05:45:49.762Z,1.95
2023-04-04T05:48:17.085Z,2.10
2023-04-04T05:50:49.900Z,2.22
2023-04-04T05:53:21.038Z,2.03
2023-04-04T05:55:54.055Z,2.53
2023-04-04T05:58:27.427Z,2.33
2023-04-04T06:00:57.871Z,1.90
2023-04-04T06:03:25.224Z,2.33
2023-04-04T06:05:53.493Z,1.73
2023-04-04T06:08:21.304Z,2.80
2023-04-04T06:10:48.394Z,2.83
2023-04-04T06:13:15.833Z,3.30
2023-04-04T06:15:48.910Z,3.13
2023-04-04T06:18:17.541Z,2.35
2023-04-04T06:20:44.679Z,2.50
2023-04-04T06:23:11.878Z,2.70
2023-04-04T06:25:44.175Z,2.83
2023-04-04T06:28:15.887Z,2.33
2023-04-04T06:30:45.358Z,2.33
2023-04-04T06:33:14.749Z,2.30
2023-04-04T06:35:46.131Z,2.22
2023-04-04T06:38:14.464Z,2.30
2023-04-04T06:40:42.068Z,2.15
2023-04-04T06:43:10.309Z,2.00
2023-04-04T06:45:40.266Z,1.67
2023-04-04T06:48:07.975Z,2.72
2023-04-04T06:50:35.157Z,3.30
2023-04-04T06:53:06.268Z,3.30
2023-04-04T06:55:36.618Z,1.95
2023-04-04T06:58:03.815Z,3.00
2023-04-04T07:00:31.049Z,4.55
2023-04-04T07:03:02.216Z,2.95
2023-04-04T07:05:29.745Z,3.00
2023-04-04T07:07:57.275Z,3.53
2023-04-04T07:10:25.657Z,2.38
2023-04-04T07:12:52.925Z,2.88
2023-04-04T07:15:20.169Z,2.55
2023-04-04T07:17:47.392Z,4.65
2023-04-04T07:20:14.634Z,3.22
2023-04-04T07:22:42.630Z,4.10
2023-04-04T07:25:10.295Z,2.72
2023-04-04T07:27:37.507Z,3.30
2023-04-04T07:30:05.629Z,4.20
2023-04-04T07:32:32.805Z,3.90
2023-04-04T07:34:59.986Z,3.70
2023-04-04T07:37:27.325Z,3.10
2023-04-04T07:39:54.437Z,5.15
2023-04-04T07:42:23.434Z,3.25
2023-04-04T07:44:51.468Z,3.58
2023-04-04T07:47:19.013Z,3.20
2023-04-04T07:49:46.605Z,4.68
2023-04-04T07:52:13.686Z,3.28
2023-04-04T07:54:40.734Z,3.35
2023-04-04T07:57:10.006Z,3.75
2023-04-04T07:59:38.009Z,4.00
2023-04-04T08:02:05.250Z,3.38
2023-04-04T08:04:32.495Z,2.85
2023-04-04T08:06:59.626Z,2.92
2023-04-04T08:09:31.407Z,3.47
2023-04-04T08:11:58.585Z,2.53
2023-04-04T08:14:25.764Z,2.75
2023-04-04T08:16:52.878Z,3.25
2023-04-04T08:19:20.618Z,3.80
2023-04-04T08:21:47.904Z,3.38
2023-04-04T08:24:14.955Z,3.15
2023-04-04T08:26:43.551Z,2.65
2023-04-04T08:29:12.298Z,3.75
2023-04-04T08:31:40.709Z,3.25
2023-04-04T08:34:08.662Z,5.45
2023-04-04T08:36:35.991Z,4.22
2023-04-04T08:39:03.895Z,3.28
2023-04-04T08:41:35.038Z,2.80
2023-04-04T08:44:04.617Z,4.22
2023-04-04T08:46:32.019Z,4.13
2023-04-04T08:49:00.639Z,3.70
2023-04-04T08:51:31.784Z,2.92
2023-04-04T08:54:00.728Z,3.78
2023-04-04T08:56:29.804Z,4.45
2023-04-04T08:58:57.213Z,5.07
2023-04-04T09:01:24.424Z,2.92
2023-04-04T09:03:53.484Z,4.00
2023-04-04T09:06:21.954Z,4.28
2023-04-04T09:08:49.170Z,3.20
2023-04-04T09:11:17.704Z,4.72
2023-04-04T09:13:46.233Z,3.72
2023-04-04T09:16:13.615Z,3.35
2023-04-04T09:18:41.171Z,4.60
2023-04-04T09:21:12.484Z,4.35
2023-04-04T09:23:39.803Z,4.72
2023-04-04T09:26:07.032Z,3.75
2023-04-04T09:28:35.617Z,4.80
2023-04-04T09:31:05.598Z,3.78
2023-04-04T09:33:34.534Z,3.85
2023-04-04T09:36:11.286Z,5.05
2023-04-04T09:38:44.192Z,3.13
2023-04-04T09:41:15.474Z,3.90
2023-04-04T09:43:45.866Z,3.42
2023-04-04T09:46:13.396Z,2.92
2023-04-04T09:48:41.696Z,4.63
2023-04-04T09:51:12.721Z,3.70
2023-04-04T09:53:42.301Z,3.28
2023-04-04T09:56:09.787Z,4.43
2023-04-04T09:58:46.290Z,2.83
2023-04-04T10:01:18.289Z,3.63
2023-04-04T10:03:53.902Z,3.65
2023-04-04T10:06:22.544Z,5.60
2023-04-04T10:08:50.246Z,3.30
2023-04-04T10:11:32.380Z,4.15
2023-04-04T10:14:00.763Z,3.95
2023-04-04T10:16:38.306Z,4.90
2023-04-04T10:19:09.378Z,4.25
2023-04-04T10:21:36.886Z,3.80
2023-04-04T10:24:09.542Z,5.00
2023-04-04T10:26:37.562Z,5.25
2023-04-04T10:29:06.147Z,3.80
2023-04-04T10:31:38.424Z,3.50
2023-04-04T10:34:22.486Z,5.00
2023-04-04T10:37:13.135Z,4.45
2023-04-04T10:39:54.354Z,5.70
2023-04-04T10:42:23.606Z,3.50
2023-04-04T10:44:51.328Z,3.45
2023-04-04T10:47:22.165Z,5.10
2023-04-04T10:49:51.292Z,6.03
2023-04-04T10:52:24.309Z,3.95
2023-04-04T10:54:57.619Z,3.78
2023-04-04T10:57:28.347Z,4.28
2023-04-04T11:00:06.624Z,4.55
2023-04-04T11:02:59.793Z,4.72
2023-04-04T11:05:34.683Z,6.05
2023-04-04T11:08:08.635Z,7.63
2023-04-04T11:10:44.683Z,4.95
2023-04-04T11:13:48.762Z,5.78
2023-04-04T11:16:21.236Z,4.95
2023-04-04T11:18:49.033Z,6.50
2023-04-04T11:21:20.747Z,7.10
2023-04-04T11:23:48.216Z,4.78
2023-04-04T11:26:41.631Z,6.22
2023-04-04T11:29:09.370Z,5.35
2023-04-04T11:31:46.024Z,11.20
2023-04-04T11:34:30.935Z,7.13
2023-04-04T11:37:01.824Z,7.00
2023-04-04T11:39:33.764Z,5.72
2023-04-04T11:42:16.563Z,9.80
2023-04-04T11:44:52.913Z,8.75
2023-04-04T11:47:23.607Z,7.22
2023-04-04T11:49:53.481Z,7.25
2023-04-04T11:52:21.534Z,7.10
2023-04-04T11:54:49.193Z,7.82
2023-04-04T11:57:21.224Z,7.63
2023-04-04T11:59:51.201Z,9.60
2023-04-04T12:02:29.976Z,6.53
2023-04-04T12:04:57.849Z,8.88
2023-04-04T12:07:25.391Z,8.63
2023-04-04T12:09:53.427Z,7.57
2023-04-04T12:12:22.922Z,6.25
2023-04-04T12:14:50.423Z,11.65
2023-04-04T12:17:17.963Z,5.68
2023-04-04T12:19:45.184Z,7.43
2023-04-04T12:22:12.390Z,7.22
2023-04-04T12:24:39.672Z,5.28
2023-04-04T12:27:07.340Z,4.55
2023-04-04T12:29:36.530Z,8.77
2023-04-04T12:32:05.444Z,6.00
2023-04-04T12:34:34.392Z,7.45
2023-04-04T12:37:02.773Z,6.78
2023-04-04T12:39:30.717Z,5.60
2023-04-04T12:41:59.861Z,6.57
2023-04-04T12:44:34.386Z,5.90
2023-04-04T12:47:07.222Z,6.40
2023-04-04T12:49:45.705Z,6.78
2023-04-04T12:52:19.721Z,8.27
2023-04-04T12:54:50.986Z,4.90
2023-04-04T12:57:25.899Z,6.05
2023-04-04T12:59:55.817Z,7.80
2023-04-04T13:02:23.955Z,6.88
2023-04-04T13:04:56.510Z,5.65
2023-04-04T13:07:31.376Z,8.82
2023-04-04T13:10:04.772Z,9.93
2023-04-04T13:12:58.828Z,5.30
2023-04-04T13:15:48.435Z,12.70
2023-04-04T13:18:24.814Z,8.10
2023-04-04T13:20:53.774Z,5.97
2023-04-04T13:23:21.682Z,5.45
2023-04-04T13:25:49.047Z,9.45
2023-04-04T13:28:16.250Z,5.55
2023-04-04T13:30:49.855Z,8.90
2023-04-04T13:33:18.507Z,8.35
2023-04-04T13:35:46.622Z,5.55
2023-04-04T13:38:14.178Z,5.10
2023-04-04T13:40:41.510Z,9.35
2023-04-04T13:43:11.423Z,5.55
2023-04-04T13:45:39.244Z,5.35
2023-04-04T13:48:06.759Z,6.05
2023-04-04T13:50:39.069Z,4.80
2023-04-04T13:53:06.259Z,8.13
2023-04-04T13:55:33.378Z,8.07
2023-04-04T13:58:00.675Z,8.95
2023-04-04T14:00:28.522Z,8.40
2023-04-04T14:02:57.223Z,6.70
2023-04-04T14:05:24.652Z,10.00
2023-04-04T14:07:51.782Z,6.13
2023-04-04T14:10:19.423Z,8.52
2023-04-04T14:12:47.022Z,7.40
2023-04-04T14:15:14.474Z,5.70
2023-04-04T14:17:43.164Z,5.03
2023-04-04T14:20:10.882Z,5.00
2023-04-04T14:22:38.018Z,7.32
2023-04-04T14:25:05.487Z,6.90
2023-04-04T14:27:33.039Z,8.30
2023-04-04T14:30:01.172Z,7.40
2023-04-04T14:32:28.364Z,5.20
2023-04-04T14:34:55.718Z,6.18
2023-04-04T14:37:23.137Z,6.45
2023-04-04T14:39:50.349Z,5.32
2023-04-04T14:42:18.627Z,5.00
2023-04-04T14:44:46.230Z,4.85
2023-04-04T14:47:13.515Z,10.38
2023-04-04T14:49:40.703Z,5.07
2023-04-04T14:52:07.967Z,8.88
2023-04-04T14:54:35.023Z,6.80
2023-04-04T14:57:03.565Z,4.65
2023-04-04T14:59:32.340Z,5.78
2023-04-04T15:02:00.271Z,4.68
2023-04-04T15:04:27.811Z,6.32
2023-04-04T15:06:56.907Z,5.40
2023-04-04T15:09:24.096Z,4.65
2023-04-04T15:11:52.417Z,8.45
2023-04-04T15:14:19.577Z,7.22
2023-04-04T15:16:46.859Z,6.22
2023-04-04T15:19:14.010Z,4.75
2023-04-04T15:21:41.403Z,11.88
2023-04-04T15:24:08.615Z,6.38
2023-04-04T15:26:35.772Z,6.95
2023-04-04T15:29:03.223Z,5.05
2023-04-04T15:31:31.643Z,7.25
2023-04-04T15:33:59.536Z,5.18
2023-04-04T15:36:28.849Z,5.85
2023-04-04T15:38:56.594Z,8.60
2023-04-04T15:41:24.157Z,5.63
2023-04-04T15:43:51.532Z,4.47
2023-04-04T15:46:18.707Z,5.65
2023-04-04T15:48:48.068Z,5.65
2023-04-04T15:51:17.120Z,5.53
2023-04-04T15:53:44.312Z,6.72
2023-04-04T15:56:11.463Z,6.05
2023-04-04T15:58:38.587Z,6.03
2023-04-04T16:01:09.022Z,4.72
2023-04-04T16:03:36.423Z,6.35
2023-04-04T16:06:06.543Z,8.35
2023-04-04T16:08:33.837Z,5.70
2023-04-04T16:11:02.748Z,5.35
2023-04-04T16:13:30.103Z,5.00
2023-04-04T16:15:57.205Z,4.07
2023-04-04T16:18:25.537Z,9.18
2023-04-04T16:20:52.570Z,4.88
2023-04-04T16:23:19.717Z,6.57
2023-04-04T16:25:47.085Z,5.40
2023-04-04T16:28:14.363Z,7.90
2023-04-04T16:30:41.763Z,7.88
2023-04-04T16:33:09.363Z,9.13
2023-04-04T16:35:37.389Z,7.43
2023-04-04T16:38:04.718Z,5.25
2023-04-04T16:40:32.031Z,4.88
2023-04-04T16:42:59.170Z,4.97
2023-04-04T16:45:27.228Z,5.40
2023-04-04T16:47:54.438Z,6.22
2023-04-04T16:50:21.541Z,6.70
2023-04-04T16:52:48.654Z,4.78
2023-04-04T16:55:16.112Z,4.55
2023-04-04T16:57:43.679Z,4.80
2023-04-04T17:00:11.295Z,4.30
2023-04-04T17:02:45.264Z,6.50
2023-04-04T17:05:14.463Z,4.57
2023-04-04T17:07:42.099Z,3.60
2023-04-04T17:10:10.172Z,5.90
2023-04-04T17:12:37.630Z,5.60
2023-04-04T17:15:05.656Z,5.28
2023-04-04T17:17:32.821Z,4.78
2023-04-04T17:20:00.164Z,6.63
2023-04-04T17:22:27.445Z,4.22
2023-04-04T17:24:54.547Z,3.78
2023-04-04T17:27:22.398Z,3.42
2023-04-04T17:29:49.544Z,6.20
2023-04-04T17:32:16.783Z,5.03
2023-04-04T17:34:43.980Z,5.03
2023-04-04T17:37:13.303Z,3.67
2023-04-04T17:39:40.569Z,4.60
2023-04-04T17:42:08.058Z,4.10
2023-04-04T17:44:35.082Z,3.88
2023-04-04T17:47:02.224Z,3.70
2023-04-04T17:49:29.439Z,4.70
2023-04-04T17:51:56.668Z,3.88
2023-04-04T17:54:26.015Z,4.38
2023-04-04T17:56:53.340Z,4.10
2023-04-04T17:59:21.110Z,3.78
2023-04-04T18:01:48.872Z,3.65
2023-04-04T18:04:16.376Z,3.45
2023-04-04T18:06:43.546Z,2.78
2023-04-04T18:09:10.967Z,2.92
2023-04-04T18:11:39.228Z,3.38
2023-04-04T18:14:06.910Z,2.45
2023-04-04T18:16:39.666Z,4.15
2023-04-04T18:19:09.564Z,4.88
2023-04-04T18:21:38.447Z,3.55
2023-04-04T18:24:11.348Z,3.10
2023-04-04T18:26:38.891Z,3.78
2023-04-04T18:29:06.284Z,3.35
2023-04-04T18:31:33.433Z,3.50
2023-04-04T18:34:01.020Z,3.13
2023-04-04T18:36:28.254Z,3.83
2023-04-04T18:38:55.523Z,3.25
2023-04-04T18:41:22.680Z,3.97
2023-04-04T18:43:49.990Z,3.10
2023-04-04T18:46:17.140Z,3.20
2023-04-04T18:48:44.346Z,3.45
2023-04-04T18:51:12.519Z,2.60
2023-04-04T18:53:39.712Z,3.70
2023-04-04T18:56:06.926Z,3.50
2023-04-04T18:58:34.073Z,3.80
2023-04-04T19:01:04.027Z,4.00
2023-04-04T19:03:39.102Z,3.53
2023-04-04T19:06:07.744Z,3.03
2023-04-04T19:08:42.932Z,4.18
2023-04-04T19:11:11.749Z,5.20
2023-04-04T19:13:39.011Z,5.22
2023-04-04T19:16:06.677Z,4.10
2023-04-04T19:18:34.024Z,3.30
2023-04-04T19:21:01.751Z,3.05
2023-04-04T19:23:28.909Z,3.85
2023-04-04T19:25:56.013Z,3.65
2023-04-04T19:28:23.098Z,3.97
2023-04-04T19:30:52.647Z,2.83
2023-04-04T19:33:23.069Z,3.05
2023-04-04T19:36:00.356Z,2.63
2023-04-04T19:38:33.961Z,4.35
2023-04-04T19:41:03.513Z,3.50
2023-04-04T19:43:31.302Z,3.33
2023-04-04T19:46:08.469Z,4.15
2023-04-04T19:48:43.213Z,2.97
2023-04-04T19:51:17.463Z,3.45
2023-04-04T19:53:47.010Z,2.53
2023-04-04T19:56:16.054Z,4.50
2023-04-04T19:58:44.005Z,3.42
2023-04-04T20:01:18.830Z,3.35
2023-04-04T20:03:46.363Z,4.68
2023-04-04T20:06:20.972Z,4.22
2023-04-04T20:08:51.710Z,3.17
2023-04-04T20:11:33.144Z,2.85
2023-04-04T20:14:02.732Z,2.67
2023-04-04T20:16:30.852Z,2.25
2023-04-04T20:19:03.369Z,3.65
2023-04-04T20:21:35.191Z,5.65
2023-04-04T20:24:08.527Z,4.68
2023-04-04T20:26:36.241Z,4.53
2023-04-04T20:29:06.671Z,4.55
2023-04-04T20:32:00.517Z,4.00
2023-04-04T20:34:47.602Z,3.47
2023-04-04T20:37:22.161Z,3.60
2023-04-04T20:39:58.905Z,3.42
2023-04-04T20:42:41.793Z,2.58
2023-04-04T20:45:08.886Z,2.95
2023-04-04T20:47:54.024Z,3.70
2023-04-04T20:50:45.239Z,3.92
2023-04-04T20:53:17.905Z,3.60
2023-04-04T20:55:45.152Z,2.88
2023-04-04T20:58:28.210Z,4.75
2023-04-04T21:00:57.797Z,3.15
2023-04-04T21:03:31.107Z,3.53
2023-04-04T21:06:03.762Z,3.08
2023-04-04T21:08:38.095Z,2.97
2023-04-04T21:11:06.865Z,4.80
2023-04-04T21:13:36.833Z,4.10
2023-04-04T21:16:17.107Z,3.53
2023-04-04T21:18:45.353Z,4.13
2023-04-04T21:21:13.512Z,3.75
2023-04-04T21:23:55.707Z,3.63
2023-04-04T21:26:34.739Z,4.10
2023-04-04T21:29:05.556Z,4.28
2023-04-04T21:31:40.951Z,3.83
2023-04-04T21:34:13.955Z,3.47
2023-04-04T21:36:41.402Z,3.60
2023-04-04T21:39:21.130Z,4.00
2023-04-04T21:41:52.589Z,3.85
2023-04-04T21:44:19.929Z,5.88
2023-04-04T21:46:47.301Z,4.60
2023-04-04T21:49:14.590Z,5.75
2023-04-04T21:51:42.487Z,4.65
2023-04-04T21:54:10.023Z,4.22
2023-04-04T21:56:38.375Z,4.32
2023-04-04T21:59:08.312Z,5.45
2023-04-04T22:01:36.443Z,5.82
2023-04-04T22:04:04.021Z,4.55
2023-04-04T22:06:31.410Z,3.47
2023-04-04T22:09:00.505Z,5.82
2023-04-04T22:11:28.272Z,5.18
2023-04-04T22:14:07.530Z,3.53
2023-04-04T22:16:40.022Z,4.45
2023-04-04T22:19:11.356Z,5.10
2023-04-04T22:21:38.959Z,3.95
2023-04-04T22:24:06.776Z,4.22
2023-04-04T22:26:34.338Z,4.85
2023-04-04T22:29:03.840Z,4.72
2023-04-04T22:31:31.779Z,5.43
2023-04-04T22:33:58.942Z,3.70
2023-04-04T22:36:26.295Z,4.90
2023-04-04T22:38:59.263Z,6.28
2023-04-04T22:41:28.444Z,5.80
2023-04-04T22:43:57.125Z,5.70
2023-04-04T22:46:26.054Z,4.05
2023-04-04T22:49:05.968Z,4.13
2023-04-04T22:51:43.556Z,3.38
2023-04-04T22:54:16.911Z,3.28
2023-04-04T22:56:44.485Z,5.40
2023-04-04T22:59:11.997Z,3.17
2023-04-04T23:01:39.600Z,3.42
2023-04-04T23:04:06.958Z,3.35
2023-04-04T23:06:34.412Z,4.85
2023-04-04T23:09:02.772Z,5.63
2023-04-04T23:11:30.596Z,4.13
2023-04-04T23:13:57.965Z,3.33
2023-04-04T23:16:26.508Z,4.45
2023-04-04T23:18:53.922Z,4.13
2023-04-04T23:21:22.226Z,4.78
2023-04-04T23:23:49.699Z,4.30
2023-04-04T23:26:17.147Z,5.22
2023-04-04T23:28:44.349Z,5.55
2023-04-04T23:31:11.645Z,4.00
2023-04-04T23:33:38.841Z,4.47
2023-04-04T23:36:06.267Z,4.03
2023-04-04T23:38:33.465Z,3.67
2023-04-04T23:41:00.528Z,5.07
2023-04-04T23:43:27.910Z,3.95
2023-04-04T23:45:55.180Z,5.07
2023-04-04T23:48:22.476Z,4.82
2023-04-04T23:50:50.270Z,4.55
2023-04-04T23:53:17.554Z,3.75
2023-04-04T23:55:44.757Z,5.05
2023-04-04T23:58:11.901Z,4.65
